Time;durP1;ratioP1;P1;durP2;ratioP2;P2;SDS_P1;SDS_P2;PMS_P1;PMS_P2;Temp;Humidity;BMP_temperature;BMP_pressure;BME280_temperature;BME280_humidity;BME280_pressure;Samples;Min_cycle;Max_cycle;Signal;HPM_P1;HPM_P2
2023/11/13 00:01:21;;;;;;;17.20;12.20;;;;;;;4.76;87.42;98043.86;435356;1263;99231;-41
2023/11/13 00:11:25;;;;;;;28.60;17.10;;;;;;;4.81;87.60;98032.95;435353;1264;110931;-41
2023/11/13 00:21:29;;;;;;;29.50;18.10;;;;;;;4.67;87.22;98045.80;435271;1256;108143;-41
2023/11/13 00:31:32;;;;;;;28.40;17.30;;;;;;;4.56;87.36;98050.31;435285;1263;99262;-41
2023/11/13 00:41:37;;;;;;;22.00;13.70;;;;;;;4.54;87.16;98064.41;434989;1256;466258;-40
2023/11/13 00:51:41;;;;;;;21.80;14.10;;;;;;;4.58;87.18;98070.48;435237;1256;109016;-41
2023/11/13 01:01:45;;;;;;;19.70;14.40;;;;;;;4.54;87.25;98074.73;435193;1256;99359;-40
2023/11/13 01:21:53;;;;;;;33.00;19.30;;;;;;;4.45;87.36;98082.86;435312;1256;99333;-41
2023/11/13 01:31:57;;;;;;;22.60;15.60;;;;;;;4.42;87.16;98075.17;435307;1264;111301;-40
2023/11/13 01:42:00;;;;;;;21.20;12.50;;;;;;;4.42;87.16;98070.14;435101;1254;108165;-40
2023/11/13 01:52:03;;;;;;;34.60;22.50;;;;;;;4.41;87.30;98065.23;435455;1251;99244;-41
2023/11/13 02:02:09;;;;;;;36.50;22.60;;;;;;;4.28;87.41;98054.42;435443;1254;107144;-40
2023/11/13 02:12:13;;;;;;;22.40;15.30;;;;;;;4.26;87.33;98057.86;435313;1251;99230;-40
2023/11/13 02:22:16;;;;;;;23.00;15.10;;;;;;;4.29;87.38;98066.48;435317;1265;111603;-40
2023/11/13 02:32:21;;;;;;;32.20;17.80;;;;;;;4.35;87.39;98073.75;435420;1251;107556;-40
2023/11/13 02:42:25;;;;;;;27.20;18.60;;;;;;;4.30;87.41;98075.98;435349;1254;99333;-41
2023/11/13 02:52:28;;;;;;;32.60;20.30;;;;;;;4.25;87.58;98073.64;435197;1254;107478;-40
2023/11/13 03:02:33;;;;;;;22.40;14.80;;;;;;;4.28;87.41;98072.99;435236;1251;99339;-40
2023/11/13 03:12:37;;;;;;;19.10;13.00;;;;;;;4.37;87.44;98072.73;435330;1254;111243;-41
2023/11/13 03:22:40;;;;;;;25.20;15.70;;;;;;;4.40;87.35;98060.33;435292;1254;107289;-39
2023/11/13 03:32:44;;;;;;;35.60;17.60;;;;;;;4.30;87.26;98051.77;435289;1251;97935;-40
2023/11/13 03:42:48;;;;;;;27.80;17.50;;;;;;;4.18;87.21;98060.67;435364;1250;107723;-41
2023/11/13 03:52:52;;;;;;;18.10;13.10;;;;;;;4.18;87.20;98065.77;435381;1254;99240;-39
2023/11/13 04:02:56;;;;;;;22.40;13.00;;;;;;;4.27;87.26;98064.09;435297;1254;111626;-40
2023/11/13 04:13:01;;;;;;;24.70;15.80;;;;;;;4.38;87.32;98067.58;435100;1251;108198;-40
2023/11/13 04:23:05;;;;;;;23.60;16.30;;;;;;;4.35;87.27;98066.05;435412;1255;98331;-40
2023/11/13 04:33:09;;;;;;;25.40;15.20;;;;;;;4.28;87.39;98064.58;435407;1251;107547;-40
2023/11/13 04:53:17;;;;;;;16.20;12.90;;;;;;;4.33;87.09;98072.67;435247;1254;112019;-40
2023/11/13 05:03:21;;;;;;;16.30;9.90;;;;;;;4.37;87.10;98086.35;435205;1251;108309;-40
2023/11/13 05:13:25;;;;;;;16.30;11.70;;;;;;;4.42;87.30;98099.66;435336;1251;99221;-40
2023/11/13 05:23:28;;;;;;;21.90;12.40;;;;;;;4.41;87.27;98107.84;435336;1254;108546;-40
2023/11/13 05:33:32;;;;;;;14.00;9.10;;;;;;;4.40;86.97;98108.81;435183;1254;98842;-40
2023/11/13 05:43:36;;;;;;;14.50;8.50;;;;;;;4.45;86.83;98102.08;435362;1254;111932;-41
2023/11/13 05:53:39;;;;;;;19.90;12.90;;;;;;;4.47;87.09;98108.59;435267;1254;107952;-40
2023/11/13 06:03:43;;;;;;;19.60;11.80;;;;;;;4.43;87.04;98119.59;435089;1254;99168;-40
2023/11/13 06:13:47;;;;;;;17.80;11.40;;;;;;;4.34;86.79;98125.73;435492;1254;108561;-40
2023/11/13 06:23:51;;;;;;;14.50;9.20;;;;;;;4.39;86.65;98116.34;435298;1254;98423;-40
2023/11/13 06:33:54;;;;;;;11.20;7.40;;;;;;;4.56;86.66;98123.51;435332;1251;113878;-40
2023/11/13 07:04:07;;;;;;;10.90;7.70;;;;;;;4.78;86.40;98158.70;435340;1254;108505;-40
2023/11/13 07:14:12;;;;;;;20.90;11.00;;;;;;;4.88;86.16;98152.30;435258;1254;99314;-40
2023/11/13 07:24:16;;;;;;;32.80;17.80;;;;;;;5.04;86.01;98149.33;435233;1254;113231;-40
2023/11/13 07:34:20;;;;;;;11.20;8.40;;;;;;;5.14;86.04;98161.66;435106;1254;107437;-40
2023/11/13 07:44:24;;;;;;;24.30;13.80;;;;;;;5.20;85.78;98170.40;435404;1251;99218;-40
2023/11/13 07:54:28;;;;;;;23.00;12.70;;;;;;;5.32;85.73;98183.15;435433;1253;107875;-39
2023/11/13 08:04:32;;;;;;;16.80;8.00;;;;;;;5.51;85.40;98195.11;435308;1250;99221;-39
2023/11/13 08:14:36;;;;;;;12.40;7.50;;;;;;;5.65;85.06;98183.79;435421;1254;111408;-40
2023/11/13 08:24:42;;;;;;;21.30;11.60;;;;;;;5.54;84.77;98179.48;435304;1252;108619;-40
2023/11/13 08:34:46;;;;;;;10.60;6.90;;;;;;;5.35;84.44;98173.50;435446;1254;99119;-40
2023/11/13 08:44:50;;;;;;;14.90;6.30;;;;;;;5.20;84.17;98166.41;435337;1251;98950;-40
2023/11/13 08:54:54;;;;;;;9.40;6.70;;;;;;;5.36;84.07;98157.94;435297;1254;107139;-40
2023/11/13 09:04:57;;;;;;;13.40;8.30;;;;;;;5.82;84.06;98150.02;435229;1254;98092;-41
2023/11/13 09:25:05;;;;;;;16.60;10.00;;;;;;;6.79;83.62;98166.23;435515;1254;98339;-40
2023/11/13 10:05:22;;;;;;;11.60;8.60;;;;;;;7.74;81.12;98145.70;435320;1254;110845;-41
2023/11/13 10:15:28;;;;;;;13.10;9.10;;;;;;;7.84;80.19;98142.25;435331;1254;107938;-40
2023/11/13 10:35:45;;;;;;;13.20;7.80;;;;;;;8.24;79.53;98140.32;435269;1254;109790;-40
2023/11/13 10:45:48;;;;;;;8.90;5.70;;;;;;;8.32;78.87;98131.91;435365;1254;108608;-39
2023/11/13 10:55:53;;;;;;;8.80;4.70;;;;;;;8.52;78.45;98125.13;435408;1251;98827;-40
2023/11/13 11:05:59;;;;;;;10.40;5.90;;;;;;;8.65;77.28;98120.23;435484;1251;108381;-40
2023/11/13 11:16:27;;;;;;;7.60;4.00;;;;;;;8.67;76.34;98110.84;435275;1251;99377;-40
2023/11/13 11:26:49;;;;;;;3.10;2.10;;;;;;;8.93;75.37;98104.36;435452;1251;110295;-40
2023/11/13 11:36:58;;;;;;;2.20;1.90;;;;;;;8.94;73.72;98092.13;435318;1253;109223;-41
2023/11/13 11:47:03;;;;;;;3.80;1.90;;;;;;;8.82;72.64;98085.09;435479;1251;99224;-41
2023/11/13 11:57:15;;;;;;;5.70;4.00;;;;;;;8.80;72.26;98084.32;435293;1251;107996;-40
2023/11/13 12:07:18;;;;;;;3.30;2.30;;;;;;;8.84;71.05;98080.02;435346;1254;97999;-40
2023/11/13 12:17:22;;;;;;;6.30;3.30;;;;;;;8.70;69.93;98075.17;435519;1251;111523;-41
2023/11/13 12:27:26;;;;;;;3.40;2.30;;;;;;;8.68;68.99;98061.47;436403;1254;98570;-41
2023/11/13 12:37:30;;;;;;;2.80;1.90;;;;;;;8.62;68.51;98055.25;435327;1253;99240;-42
2023/11/13 12:47:35;;;;;;;4.10;2.80;;;;;;;8.50;68.14;98056.61;435054;1253;464361;-41
2023/11/13 12:57:42;;;;;;;3.30;2.60;;;;;;;8.33;67.02;98059.11;435349;1255;108659;-40
2023/11/13 13:07:46;;;;;;;4.00;3.30;;;;;;;8.13;67.14;98058.17;435546;1254;98563;-40
2023/11/13 13:17:51;;;;;;;58.30;22.30;;;;;;;8.04;67.15;98046.09;435272;1255;98003;-40
2023/11/13 13:38:00;;;;;;;11.60;5.40;;;;;;;8.00;67.49;98026.83;435403;1256;98713;-41
2023/11/13 13:48:03;;;;;;;12.70;7.20;;;;;;;7.85;67.65;98027.11;435226;1256;99334;-41
2023/11/13 13:58:07;;;;;;;12.20;7.50;;;;;;;7.68;67.59;98025.75;435429;1254;108036;-40
2023/11/13 14:08:14;;;;;;;12.50;6.90;;;;;;;7.60;67.68;98016.86;435461;1250;98294;-40
2023/11/13 14:18:18;;;;;;;14.30;9.10;;;;;;;7.52;67.77;98005.55;435247;1254;111261;-41
2023/11/13 14:28:22;;;;;;;9.80;5.00;;;;;;;7.34;67.86;98003.75;435363;1252;98428;-40
2023/11/13 14:38:27;;;;;;;10.10;5.50;;;;;;;7.00;67.32;97995.79;435498;1253;98008;-42
2023/11/13 14:48:31;;;;;;;21.20;9.70;;;;;;;6.58;67.37;97986.19;435233;1253;111709;-42
2023/11/13 14:58:35;;;;;;;20.70;10.10;;;;;;;6.16;67.39;97978.22;435327;1255;99220;-40
2023/11/13 15:08:39;;;;;;;32.00;13.30;;;;;;;5.71;67.80;97974.72;435229;1252;99234;-40
2023/11/13 15:28:53;;;;;;;68.00;30.70;;;;;;;4.77;68.51;97961.03;435097;1255;108370;-41
2023/11/13 15:38:58;;;;;;;46.30;24.80;;;;;;;4.29;68.82;97949.41;435071;1258;98829;-41
2023/11/13 15:59:07;;;;;;;36.90;20.20;;;;;;;3.76;69.30;97915.60;435055;1258;108409;-40
2023/11/13 16:19:15;;;;;;;50.20;27.20;;;;;;;3.55;70.27;97909.27;435197;1253;97995;-41
2023/11/13 16:29:19;;;;;;;68.80;30.40;;;;;;;3.47;70.45;97887.04;435117;1255;107809;-40
2023/11/13 16:39:23;;;;;;;59.20;29.90;;;;;;;3.41;70.80;97884.59;434945;1255;99296;-40
2023/11/13 16:49:27;;;;;;;64.70;34.20;;;;;;;3.22;70.73;97883.87;435060;1255;99241;-40
2023/11/13 16:59:31;;;;;;;47.90;29.50;;;;;;;3.04;70.85;97885.45;435076;1253;107211;-40
2023/11/13 17:09:34;;;;;;;61.00;34.10;;;;;;;2.96;71.17;97884.58;435193;1255;98002;-41
2023/11/13 17:19:39;;;;;;;109.30;52.10;;;;;;;2.83;71.41;97891.38;434983;1257;108038;-40
2023/11/13 17:29:43;;;;;;;105.80;54.30;;;;;;;2.60;71.82;97879.07;435020;1252;99221;-42
2023/11/13 17:39:47;;;;;;;106.50;52.60;;;;;;;2.45;72.11;97863.33;435126;1255;111263;-41
2023/11/13 17:49:51;;;;;;;103.30;48.20;;;;;;;2.26;72.33;97831.61;435091;1262;99224;-40
2023/11/13 17:59:55;;;;;;;66.20;39.10;;;;;;;2.21;72.63;97806.04;435084;1257;98689;-41
2023/11/13 18:09:59;;;;;;;75.10;39.80;;;;;;;2.20;72.96;97798.14;435112;1258;112840;-39
2023/11/13 18:20:05;;;;;;;114.90;58.80;;;;;;;2.13;73.30;97794.65;435060;1257;109426;-40
2023/11/13 18:30:08;;;;;;;116.50;59.80;;;;;;;1.96;73.67;97761.75;435215;1258;98512;-41
2023/11/13 18:40:12;;;;;;;119.00;55.90;;;;;;;1.86;73.97;97744.75;435207;1259;99247;-39
2023/11/13 18:50:15;;;;;;;87.20;44.30;;;;;;;1.87;74.33;97740.86;435168;1258;108748;-42
2023/11/13 19:00:19;;;;;;;78.10;40.80;;;;;;;2.02;74.78;97717.27;435182;1266;99216;-41
2023/11/13 19:10:23;;;;;;;102.00;53.70;;;;;;;2.23;75.37;97691.64;435178;1264;106811;-40
2023/11/13 19:20:26;;;;;;;91.50;44.30;;;;;;;2.31;75.71;97660.10;435149;1266;97968;-40
2023/11/13 19:40:33;;;;;;;90.80;42.80;;;;;;;2.62;76.36;97641.38;435105;1257;107351;-39
2023/11/13 20:00:42;;;;;;;77.20;36.10;;;;;;;2.82;76.86;97582.46;435125;1258;112887;-40
2023/11/13 20:10:46;;;;;;;67.40;32.30;;;;;;;3.01;76.93;97560.30;434926;1257;108633;-39
2023/11/13 20:20:49;;;;;;;90.30;45.30;;;;;;;3.05;77.14;97540.10;435229;1257;99253;-38
2023/11/13 20:30:53;;;;;;;87.00;38.90;;;;;;;3.05;77.37;97520.27;435173;1262;99207;-39
2023/11/13 20:40:57;;;;;;;65.00;30.70;;;;;;;3.25;77.73;97502.23;435135;1255;108424;-40
2023/11/13 20:51:03;;;;;;;81.40;38.10;;;;;;;3.43;77.90;97497.38;435176;1266;99234;-41
2023/11/13 21:11:10;;;;;;;47.30;25.80;;;;;;;3.60;78.53;97451.58;435111;1266;99307;-40
2023/11/13 21:31:17;;;;;;;73.20;34.30;;;;;;;3.89;78.95;97406.05;435076;1256;109297;-40
2023/11/13 21:41:21;;;;;;;64.30;31.50;;;;;;;3.92;79.26;97311.84;435259;1255;99228;-41
2023/11/13 21:51:25;;;;;;;40.60;21.30;;;;;;;4.11;79.76;97279.81;435154;1257;109014;-39
2023/11/13 22:01:28;;;;;;;40.40;22.90;;;;;;;4.48;80.78;97228.26;435083;1257;97979;-40
2023/11/13 22:11:33;;;;;;;43.90;23.40;;;;;;;4.67;81.32;97215.06;435067;1257;112063;-40
2023/11/13 22:21:37;;;;;;;41.00;23.50;;;;;;;4.84;81.78;97206.91;435136;1252;108312;-40
2023/11/13 22:31:42;;;;;;;31.40;19.40;;;;;;;5.04;82.52;97185.36;435169;1257;99215;-40
2023/11/13 22:41:46;;;;;;;42.10;23.50;;;;;;;5.18;83.04;97165.93;435267;1254;107192;-40
2023/11/13 23:01:54;;;;;;;32.90;20.60;;;;;;;5.35;84.23;97126.98;435312;1257;111226;-40
2023/11/13 23:11:58;;;;;;;37.20;21.20;;;;;;;5.48;85.07;97081.92;435080;1257;108263;-40
2023/11/13 23:22:02;;;;;;;27.50;18.60;;;;;;;5.55;86.18;97057.89;435097;1257;99234;-40
2023/11/13 23:32:10;;;;;;;34.20;20.50;;;;;;;5.60;86.52;97038.45;434993;1257;107516;-41
2023/11/13 23:42:14;;;;;;;28.60;19.00;;;;;;;5.64;87.23;97042.23;435139;1253;99234;-41
2023/11/13 23:52:18;;;;;;;29.30;18.60;;;;;;;5.68;88.04;97030.16;435237;1258;112101;-41
